sensor_id;sensor_type;location;lat;lon;timestamp;P1;durP1;ratioP1;P2;durP2;ratioP2
66559;SDS011;53413;49.878;8.142;2023-08-30T00:01:36;8.70;;;4.73;;
66559;SDS011;53413;49.878;8.142;2023-08-30T00:04:02;9.53;;;4.97;;
66559;SDS011;53413;49.878;8.142;2023-08-30T00:06:27;11.17;;;5.30;;
66559;SDS011;53413;49.878;8.142;2023-08-30T00:08:53;9.73;;;5.38;;
66559;SDS011;53413;49.878;8.142;2023-08-30T00:11:18;9.95;;;5.47;;
66559;SDS011;53413;49.878;8.142;2023-08-30T00:13:43;10.47;;;5.07;;
66559;SDS011;53413;49.878;8.142;2023-08-30T00:16:09;10.37;;;5.20;;
66559;SDS011;53413;49.878;8.142;2023-08-30T00:18:34;9.07;;;5.30;;
66559;SDS011;53413;49.878;8.142;2023-08-30T00:20:59;9.43;;;4.80;;
66559;SDS011;53413;49.878;8.142;2023-08-30T00:23:25;11.37;;;5.33;;
66559;SDS011;53413;49.878;8.142;2023-08-30T00:25:50;8.23;;;4.73;;
66559;SDS011;53413;49.878;8.142;2023-08-30T00:28:16;10.50;;;5.60;;
66559;SDS011;53413;49.878;8.142;2023-08-30T00:30:41;11.50;;;5.73;;
66559;SDS011;53413;49.878;8.142;2023-08-30T00:33:06;11.30;;;5.47;;
66559;SDS011;53413;49.878;8.142;2023-08-30T00:35:32;11.33;;;6.03;;
66559;SDS011;53413;49.878;8.142;2023-08-30T00:37:57;9.80;;;5.67;;
66559;SDS011;53413;49.878;8.142;2023-08-30T00:40:23;10.85;;;5.63;;
66559;SDS011;53413;49.878;8.142;2023-08-30T00:42:49;10.60;;;5.80;;
66559;SDS011;53413;49.878;8.142;2023-08-30T00:45:15;10.50;;;5.40;;
66559;SDS011;53413;49.878;8.142;2023-08-30T00:47:40;11.32;;;5.65;;
66559;SDS011;53413;49.878;8.142;2023-08-30T00:50:05;10.53;;;5.67;;
66559;SDS011;53413;49.878;8.142;2023-08-30T00:52:31;12.50;;;6.03;;
66559;SDS011;53413;49.878;8.142;2023-08-30T00:54:57;10.93;;;5.33;;
66559;SDS011;53413;49.878;8.142;2023-08-30T00:57:22;10.37;;;5.67;;
66559;SDS011;53413;49.878;8.142;2023-08-30T00:59:48;11.40;;;6.07;;
66559;SDS011;53413;49.878;8.142;2023-08-30T01:02:16;11.27;;;6.00;;
66559;SDS011;53413;49.878;8.142;2023-08-30T01:04:42;10.93;;;6.00;;
66559;SDS011;53413;49.878;8.142;2023-08-30T01:07:08;10.70;;;5.50;;
66559;SDS011;53413;49.878;8.142;2023-08-30T01:09:33;11.53;;;6.10;;
66559;SDS011;53413;49.878;8.142;2023-08-30T01:14:35;10.48;;;5.60;;
66559;SDS011;53413;49.878;8.142;2023-08-30T01:17:09;11.15;;;6.38;;
66559;SDS011;53413;49.878;8.142;2023-08-30T01:19:48;11.15;;;5.80;;
66559;SDS011;53413;49.878;8.142;2023-08-30T01:28:08;11.50;;;5.85;;
66559;SDS011;53413;49.878;8.142;2023-08-30T01:30:36;9.98;;;5.97;;
66559;SDS011;53413;49.878;8.142;2023-08-30T01:33:04;10.07;;;6.03;;
66559;SDS011;53413;49.878;8.142;2023-08-30T01:35:31;11.20;;;5.77;;
66559;SDS011;53413;49.878;8.142;2023-08-30T01:38:02;11.75;;;6.38;;
66559;SDS011;53413;49.878;8.142;2023-08-30T01:40:28;10.48;;;5.82;;
66559;SDS011;53413;49.878;8.142;2023-08-30T01:42:57;11.30;;;5.72;;
66559;SDS011;53413;49.878;8.142;2023-08-30T01:45:23;11.95;;;6.28;;
66559;SDS011;53413;49.878;8.142;2023-08-30T01:47:50;11.57;;;6.00;;
66559;SDS011;53413;49.878;8.142;2023-08-30T01:50:17;12.57;;;6.70;;
66559;SDS011;53413;49.878;8.142;2023-08-30T01:52:44;11.45;;;6.35;;
66559;SDS011;53413;49.878;8.142;2023-08-30T01:55:11;10.50;;;6.07;;
66559;SDS011;53413;49.878;8.142;2023-08-30T01:57:39;11.63;;;6.65;;
66559;SDS011;53413;49.878;8.142;2023-08-30T02:00:04;11.30;;;5.50;;
66559;SDS011;53413;49.878;8.142;2023-08-30T02:02:31;10.85;;;6.20;;
66559;SDS011;53413;49.878;8.142;2023-08-30T02:04:56;12.30;;;6.77;;
66559;SDS011;53413;49.878;8.142;2023-08-30T02:07:24;11.90;;;6.40;;
66559;SDS011;53413;49.878;8.142;2023-08-30T02:09:58;11.43;;;6.40;;
66559;SDS011;53413;49.878;8.142;2023-08-30T02:12:28;12.05;;;6.03;;
66559;SDS011;53413;49.878;8.142;2023-08-30T02:14:58;11.10;;;6.28;;
66559;SDS011;53413;49.878;8.142;2023-08-30T02:17:26;12.25;;;6.10;;
66559;SDS011;53413;49.878;8.142;2023-08-30T02:19:52;11.37;;;6.03;;
66559;SDS011;53413;49.878;8.142;2023-08-30T02:22:19;12.05;;;6.07;;
66559;SDS011;53413;49.878;8.142;2023-08-30T02:24:44;13.35;;;6.20;;
66559;SDS011;53413;49.878;8.142;2023-08-30T02:27:09;11.77;;;5.83;;
66559;SDS011;53413;49.878;8.142;2023-08-30T02:29:35;12.23;;;6.17;;
66559;SDS011;53413;49.878;8.142;2023-08-30T02:32:00;11.23;;;5.80;;
66559;SDS011;53413;49.878;8.142;2023-08-30T02:34:25;10.57;;;5.47;;
66559;SDS011;53413;49.878;8.142;2023-08-30T02:36:51;12.33;;;6.37;;
66559;SDS011;53413;49.878;8.142;2023-08-30T02:39:16;12.20;;;6.60;;
66559;SDS011;53413;49.878;8.142;2023-08-30T02:41:41;12.33;;;6.50;;
66559;SDS011;53413;49.878;8.142;2023-08-30T02:44:13;12.97;;;6.53;;
66559;SDS011;53413;49.878;8.142;2023-08-30T02:46:38;13.55;;;6.68;;
66559;SDS011;53413;49.878;8.142;2023-08-30T02:49:04;13.07;;;6.45;;
66559;SDS011;53413;49.878;8.142;2023-08-30T02:51:30;12.20;;;6.20;;
66559;SDS011;53413;49.878;8.142;2023-08-30T02:53:55;13.18;;;6.72;;
66559;SDS011;53413;49.878;8.142;2023-08-30T02:56:20;12.87;;;6.30;;
66559;SDS011;53413;49.878;8.142;2023-08-30T02:58:46;11.93;;;6.43;;
66559;SDS011;53413;49.878;8.142;2023-08-30T03:01:11;11.83;;;5.90;;
66559;SDS011;53413;49.878;8.142;2023-08-30T03:03:36;13.57;;;6.63;;
66559;SDS011;53413;49.878;8.142;2023-08-30T03:06:02;13.80;;;6.77;;
66559;SDS011;53413;49.878;8.142;2023-08-30T03:08:30;11.57;;;6.03;;
66559;SDS011;53413;49.878;8.142;2023-08-30T03:11:07;12.63;;;6.78;;
66559;SDS011;53413;49.878;8.142;2023-08-30T03:13:36;13.60;;;6.70;;
66559;SDS011;53413;49.878;8.142;2023-08-30T03:16:02;10.90;;;6.25;;
66559;SDS011;53413;49.878;8.142;2023-08-30T03:18:38;14.90;;;6.30;;
66559;SDS011;53413;49.878;8.142;2023-08-30T03:21:04;13.60;;;5.97;;
66559;SDS011;53413;49.878;8.142;2023-08-30T03:23:30;12.10;;;6.53;;
66559;SDS011;53413;49.878;8.142;2023-08-30T03:25:56;11.98;;;6.10;;
66559;SDS011;53413;49.878;8.142;2023-08-30T03:28:22;14.27;;;6.50;;
66559;SDS011;53413;49.878;8.142;2023-08-30T03:30:47;11.77;;;6.20;;
66559;SDS011;53413;49.878;8.142;2023-08-30T03:33:12;14.87;;;6.83;;
66559;SDS011;53413;49.878;8.142;2023-08-30T03:35:38;13.03;;;6.30;;
66559;SDS011;53413;49.878;8.142;2023-08-30T03:38:03;12.57;;;6.87;;
66559;SDS011;53413;49.878;8.142;2023-08-30T03:40:29;12.85;;;6.70;;
66559;SDS011;53413;49.878;8.142;2023-08-30T03:42:55;13.13;;;6.30;;
66559;SDS011;53413;49.878;8.142;2023-08-30T03:45:20;12.83;;;6.73;;
66559;SDS011;53413;49.878;8.142;2023-08-30T03:47:46;12.50;;;6.60;;
66559;SDS011;53413;49.878;8.142;2023-08-30T03:50:11;12.00;;;5.90;;
66559;SDS011;53413;49.878;8.142;2023-08-30T03:52:36;12.90;;;6.33;;
66559;SDS011;53413;49.878;8.142;2023-08-30T03:55:02;12.13;;;6.00;;
66559;SDS011;53413;49.878;8.142;2023-08-30T03:57:27;12.77;;;6.73;;
66559;SDS011;53413;49.878;8.142;2023-08-30T03:59:53;13.95;;;6.60;;
66559;SDS011;53413;49.878;8.142;2023-08-30T04:02:18;13.50;;;7.10;;
66559;SDS011;53413;49.878;8.142;2023-08-30T04:04:46;14.07;;;6.47;;
66559;SDS011;53413;49.878;8.142;2023-08-30T04:07:12;13.15;;;6.65;;
66559;SDS011;53413;49.878;8.142;2023-08-30T04:09:37;14.27;;;6.73;;
66559;SDS011;53413;49.878;8.142;2023-08-30T04:12:03;15.17;;;6.60;;
66559;SDS011;53413;49.878;8.142;2023-08-30T04:14:30;12.20;;;6.70;;
66559;SDS011;53413;49.878;8.142;2023-08-30T04:16:55;12.93;;;6.30;;
66559;SDS011;53413;49.878;8.142;2023-08-30T04:19:20;13.93;;;7.17;;
66559;SDS011;53413;49.878;8.142;2023-08-30T04:21:46;16.17;;;7.70;;
66559;SDS011;53413;49.878;8.142;2023-08-30T04:24:11;14.52;;;7.22;;
66559;SDS011;53413;49.878;8.142;2023-08-30T04:26:37;15.00;;;7.13;;
66559;SDS011;53413;49.878;8.142;2023-08-30T04:29:02;13.50;;;6.20;;
66559;SDS011;53413;49.878;8.142;2023-08-30T04:31:28;13.63;;;6.78;;
66559;SDS011;53413;49.878;8.142;2023-08-30T04:33:54;13.23;;;6.73;;
66559;SDS011;53413;49.878;8.142;2023-08-30T04:36:20;14.30;;;6.53;;
66559;SDS011;53413;49.878;8.142;2023-08-30T04:38:46;14.98;;;7.10;;
66559;SDS011;53413;49.878;8.142;2023-08-30T04:41:12;14.00;;;6.80;;
66559;SDS011;53413;49.878;8.142;2023-08-30T04:43:37;14.85;;;7.30;;
66559;SDS011;53413;49.878;8.142;2023-08-30T04:46:02;15.40;;;7.00;;
66559;SDS011;53413;49.878;8.142;2023-08-30T04:48:28;14.67;;;6.60;;
66559;SDS011;53413;49.878;8.142;2023-08-30T04:51:03;18.47;;;8.40;;
66559;SDS011;53413;49.878;8.142;2023-08-30T04:53:29;19.70;;;9.48;;
66559;SDS011;53413;49.878;8.142;2023-08-30T04:55:55;15.82;;;7.60;;
66559;SDS011;53413;49.878;8.142;2023-08-30T04:58:20;17.00;;;8.07;;
66559;SDS011;53413;49.878;8.142;2023-08-30T05:00:46;15.93;;;7.60;;
66559;SDS011;53413;49.878;8.142;2023-08-30T05:03:11;15.03;;;7.13;;
66559;SDS011;53413;49.878;8.142;2023-08-30T05:05:37;16.40;;;7.63;;
66559;SDS011;53413;49.878;8.142;2023-08-30T05:08:02;14.90;;;7.33;;
66559;SDS011;53413;49.878;8.142;2023-08-30T05:10:28;15.70;;;7.73;;
66559;SDS011;53413;49.878;8.142;2023-08-30T05:12:54;15.63;;;7.63;;
66559;SDS011;53413;49.878;8.142;2023-08-30T05:15:19;14.17;;;7.50;;
66559;SDS011;53413;49.878;8.142;2023-08-30T05:17:45;14.27;;;7.28;;
66559;SDS011;53413;49.878;8.142;2023-08-30T05:20:11;13.47;;;7.03;;
66559;SDS011;53413;49.878;8.142;2023-08-30T05:22:36;13.70;;;7.10;;
66559;SDS011;53413;49.878;8.142;2023-08-30T05:25:02;14.38;;;6.47;;
66559;SDS011;53413;49.878;8.142;2023-08-30T05:27:27;11.35;;;5.90;;
66559;SDS011;53413;49.878;8.142;2023-08-30T05:29:53;12.80;;;6.53;;
66559;SDS011;53413;49.878;8.142;2023-08-30T05:32:20;12.43;;;5.97;;
66559;SDS011;53413;49.878;8.142;2023-08-30T05:34:46;13.90;;;6.80;;
66559;SDS011;53413;49.878;8.142;2023-08-30T05:37:11;12.17;;;6.50;;
66559;SDS011;53413;49.878;8.142;2023-08-30T05:39:36;12.00;;;6.10;;
66559;SDS011;53413;49.878;8.142;2023-08-30T05:42:02;10.87;;;5.90;;
66559;SDS011;53413;49.878;8.142;2023-08-30T05:44:27;12.52;;;6.72;;
66559;SDS011;53413;49.878;8.142;2023-08-30T05:46:53;12.77;;;6.80;;
66559;SDS011;53413;49.878;8.142;2023-08-30T05:49:18;11.73;;;6.10;;
66559;SDS011;53413;49.878;8.142;2023-08-30T05:51:44;12.25;;;6.55;;
66559;SDS011;53413;49.878;8.142;2023-08-30T05:54:09;11.95;;;6.45;;
66559;SDS011;53413;49.878;8.142;2023-08-30T05:56:34;11.37;;;6.40;;
66559;SDS011;53413;49.878;8.142;2023-08-30T05:59:00;12.17;;;6.50;;
66559;SDS011;53413;49.878;8.142;2023-08-30T06:01:25;12.37;;;6.40;;
66559;SDS011;53413;49.878;8.142;2023-08-30T06:03:50;11.70;;;6.50;;
66559;SDS011;53413;49.878;8.142;2023-08-30T06:06:16;10.77;;;6.07;;
66559;SDS011;53413;49.878;8.142;2023-08-30T06:08:42;12.50;;;6.40;;
66559;SDS011;53413;49.878;8.142;2023-08-30T06:11:07;11.38;;;6.20;;
66559;SDS011;53413;49.878;8.142;2023-08-30T06:13:33;11.80;;;6.53;;
66559;SDS011;53413;49.878;8.142;2023-08-30T06:15:58;10.13;;;6.13;;
66559;SDS011;53413;49.878;8.142;2023-08-30T06:18:24;10.10;;;6.30;;
66559;SDS011;53413;49.878;8.142;2023-08-30T06:20:51;9.65;;;6.10;;
66559;SDS011;53413;49.878;8.142;2023-08-30T06:23:18;11.73;;;6.20;;
66559;SDS011;53413;49.878;8.142;2023-08-30T06:25:44;10.13;;;6.18;;
66559;SDS011;53413;49.878;8.142;2023-08-30T06:28:11;10.63;;;6.27;;
66559;SDS011;53413;49.878;8.142;2023-08-30T06:30:36;10.25;;;5.50;;
66559;SDS011;53413;49.878;8.142;2023-08-30T06:33:02;10.27;;;5.70;;
66559;SDS011;53413;49.878;8.142;2023-08-30T06:35:28;11.00;;;5.60;;
66559;SDS011;53413;49.878;8.142;2023-08-30T06:37:53;8.53;;;5.33;;
66559;SDS011;53413;49.878;8.142;2023-08-30T06:40:20;9.23;;;5.35;;
66559;SDS011;53413;49.878;8.142;2023-08-30T06:42:45;9.73;;;5.37;;
66559;SDS011;53413;49.878;8.142;2023-08-30T06:45:11;8.83;;;5.27;;
66559;SDS011;53413;49.878;8.142;2023-08-30T06:47:36;8.68;;;5.40;;
66559;SDS011;53413;49.878;8.142;2023-08-30T06:50:01;8.60;;;5.70;;
66559;SDS011;53413;49.878;8.142;2023-08-30T06:52:28;8.33;;;4.90;;
66559;SDS011;53413;49.878;8.142;2023-08-30T06:54:54;7.43;;;4.88;;
66559;SDS011;53413;49.878;8.142;2023-08-30T06:57:19;8.35;;;5.10;;
66559;SDS011;53413;49.878;8.142;2023-08-30T06:59:44;8.80;;;5.00;;
66559;SDS011;53413;49.878;8.142;2023-08-30T07:02:10;7.80;;;5.47;;
66559;SDS011;53413;49.878;8.142;2023-08-30T07:04:35;7.70;;;5.03;;
66559;SDS011;53413;49.878;8.142;2023-08-30T07:07:00;8.03;;;4.90;;
66559;SDS011;53413;49.878;8.142;2023-08-30T07:09:26;7.67;;;4.90;;
66559;SDS011;53413;49.878;8.142;2023-08-30T07:11:57;7.97;;;5.20;;
66559;SDS011;53413;49.878;8.142;2023-08-30T07:14:23;9.32;;;5.47;;
66559;SDS011;53413;49.878;8.142;2023-08-30T07:16:48;8.27;;;5.53;;
66559;SDS011;53413;49.878;8.142;2023-08-30T07:19:17;8.40;;;6.10;;
66559;SDS011;53413;49.878;8.142;2023-08-30T07:21:42;8.13;;;5.63;;
66559;SDS011;53413;49.878;8.142;2023-08-30T07:24:08;8.52;;;5.97;;
66559;SDS011;53413;49.878;8.142;2023-08-30T07:26:34;8.80;;;5.80;;
66559;SDS011;53413;49.878;8.142;2023-08-30T07:29:00;9.35;;;6.05;;
66559;SDS011;53413;49.878;8.142;2023-08-30T07:31:25;9.10;;;6.13;;
66559;SDS011;53413;49.878;8.142;2023-08-30T07:33:50;9.60;;;6.50;;
66559;SDS011;53413;49.878;8.142;2023-08-30T07:36:16;11.17;;;7.00;;
66559;SDS011;53413;49.878;8.142;2023-08-30T07:38:41;10.35;;;6.90;;
66559;SDS011;53413;49.878;8.142;2023-08-30T07:41:06;10.52;;;6.72;;
66559;SDS011;53413;49.878;8.142;2023-08-30T07:43:32;10.37;;;7.17;;
66559;SDS011;53413;49.878;8.142;2023-08-30T07:45:58;10.50;;;7.07;;
66559;SDS011;53413;49.878;8.142;2023-08-30T07:48:24;10.15;;;6.78;;
66559;SDS011;53413;49.878;8.142;2023-08-30T07:50:49;10.10;;;7.27;;
66559;SDS011;53413;49.878;8.142;2023-08-30T07:53:15;14.07;;;6.80;;
66559;SDS011;53413;49.878;8.142;2023-08-30T07:55:40;10.77;;;6.80;;
66559;SDS011;53413;49.878;8.142;2023-08-30T07:58:05;11.85;;;7.25;;
66559;SDS011;53413;49.878;8.142;2023-08-30T08:00:31;10.93;;;7.10;;
66559;SDS011;53413;49.878;8.142;2023-08-30T08:02:56;11.40;;;7.13;;
66559;SDS011;53413;49.878;8.142;2023-08-30T08:05:21;11.40;;;7.13;;
66559;SDS011;53413;49.878;8.142;2023-08-30T08:07:50;10.70;;;7.10;;
66559;SDS011;53413;49.878;8.142;2023-08-30T08:10:17;11.10;;;7.30;;
66559;SDS011;53413;49.878;8.142;2023-08-30T08:12:42;12.67;;;7.53;;
66559;SDS011;53413;49.878;8.142;2023-08-30T08:15:07;14.30;;;7.90;;
66559;SDS011;53413;49.878;8.142;2023-08-30T08:17:33;12.30;;;7.60;;
66559;SDS011;53413;49.878;8.142;2023-08-30T08:19:58;10.87;;;7.50;;
66559;SDS011;53413;49.878;8.142;2023-08-30T08:22:24;10.73;;;7.20;;
66559;SDS011;53413;49.878;8.142;2023-08-30T08:24:49;11.33;;;7.43;;
66559;SDS011;53413;49.878;8.142;2023-08-30T08:27:16;12.25;;;7.43;;
66559;SDS011;53413;49.878;8.142;2023-08-30T08:29:45;10.57;;;7.57;;
66559;SDS011;53413;49.878;8.142;2023-08-30T08:32:10;10.95;;;7.18;;
66559;SDS011;53413;49.878;8.142;2023-08-30T08:34:35;13.27;;;7.67;;
66559;SDS011;53413;49.878;8.142;2023-08-30T08:37:01;13.23;;;7.70;;
66559;SDS011;53413;49.878;8.142;2023-08-30T08:39:26;10.57;;;7.60;;
66559;SDS011;53413;49.878;8.142;2023-08-30T08:41:51;11.20;;;8.07;;
66559;SDS011;53413;49.878;8.142;2023-08-30T08:44:19;11.20;;;7.85;;
66559;SDS011;53413;49.878;8.142;2023-08-30T08:46:46;13.23;;;8.00;;
66559;SDS011;53413;49.878;8.142;2023-08-30T08:49:14;12.18;;;7.90;;
66559;SDS011;53413;49.878;8.142;2023-08-30T08:51:40;11.02;;;7.63;;
66559;SDS011;53413;49.878;8.142;2023-08-30T08:54:07;10.73;;;7.75;;
66559;SDS011;53413;49.878;8.142;2023-08-30T08:56:34;11.07;;;8.07;;
66559;SDS011;53413;49.878;8.142;2023-08-30T08:59:00;11.33;;;7.80;;
66559;SDS011;53413;49.878;8.142;2023-08-30T09:01:26;9.88;;;7.18;;
66559;SDS011;53413;49.878;8.142;2023-08-30T09:03:51;10.93;;;7.40;;
66559;SDS011;53413;49.878;8.142;2023-08-30T09:06:17;10.17;;;6.87;;
66559;SDS011;53413;49.878;8.142;2023-08-30T09:08:43;10.32;;;7.40;;
66559;SDS011;53413;49.878;8.142;2023-08-30T09:11:08;8.47;;;6.40;;
66559;SDS011;53413;49.878;8.142;2023-08-30T09:13:33;7.67;;;5.47;;
66559;SDS011;53413;49.878;8.142;2023-08-30T09:15:59;7.40;;;5.60;;
66559;SDS011;53413;49.878;8.142;2023-08-30T09:18:24;8.40;;;6.23;;
66559;SDS011;53413;49.878;8.142;2023-08-30T09:21:13;8.57;;;5.95;;
66559;SDS011;53413;49.878;8.142;2023-08-30T09:23:38;8.68;;;6.03;;
66559;SDS011;53413;49.878;8.142;2023-08-30T09:26:04;7.80;;;6.20;;
66559;SDS011;53413;49.878;8.142;2023-08-30T09:28:30;8.65;;;6.28;;
66559;SDS011;53413;49.878;8.142;2023-08-30T09:30:57;9.05;;;6.55;;
66559;SDS011;53413;49.878;8.142;2023-08-30T09:33:32;7.93;;;6.28;;
66559;SDS011;53413;49.878;8.142;2023-08-30T09:35:58;8.23;;;5.90;;
66559;SDS011;53413;49.878;8.142;2023-08-30T09:38:24;7.32;;;5.30;;
66559;SDS011;53413;49.878;8.142;2023-08-30T09:40:51;6.70;;;5.40;;
66559;SDS011;53413;49.878;8.142;2023-08-30T09:43:20;6.22;;;4.88;;
66559;SDS011;53413;49.878;8.142;2023-08-30T09:45:49;5.40;;;4.30;;
66559;SDS011;53413;49.878;8.142;2023-08-30T09:48:15;5.17;;;4.10;;
66559;SDS011;53413;49.878;8.142;2023-08-30T09:50:46;5.47;;;4.10;;
66559;SDS011;53413;49.878;8.142;2023-08-30T09:53:17;6.40;;;4.93;;
66559;SDS011;53413;49.878;8.142;2023-08-30T09:55:45;6.38;;;4.88;;
66559;SDS011;53413;49.878;8.142;2023-08-30T09:58:11;5.35;;;3.80;;
66559;SDS011;53413;49.878;8.142;2023-08-30T10:00:37;6.50;;;4.33;;
66559;SDS011;53413;49.878;8.142;2023-08-30T10:03:02;6.00;;;4.40;;
66559;SDS011;53413;49.878;8.142;2023-08-30T10:05:29;6.43;;;4.63;;
66559;SDS011;53413;49.878;8.142;2023-08-30T10:07:56;5.40;;;3.97;;
66559;SDS011;53413;49.878;8.142;2023-08-30T10:10:25;6.03;;;4.03;;
66559;SDS011;53413;49.878;8.142;2023-08-30T10:12:50;7.60;;;4.20;;
66559;SDS011;53413;49.878;8.142;2023-08-30T10:15:16;6.40;;;4.10;;
66559;SDS011;53413;49.878;8.142;2023-08-30T10:17:45;7.07;;;4.10;;
66559;SDS011;53413;49.878;8.142;2023-08-30T10:20:11;6.10;;;4.00;;
66559;SDS011;53413;49.878;8.142;2023-08-30T10:22:39;6.80;;;4.00;;
66559;SDS011;53413;49.878;8.142;2023-08-30T10:25:11;6.85;;;3.80;;
66559;SDS011;53413;49.878;8.142;2023-08-30T10:27:42;6.60;;;3.90;;
66559;SDS011;53413;49.878;8.142;2023-08-30T10:30:10;6.93;;;4.10;;
66559;SDS011;53413;49.878;8.142;2023-08-30T10:32:40;7.13;;;4.10;;
66559;SDS011;53413;49.878;8.142;2023-08-30T10:35:06;8.18;;;4.65;;
66559;SDS011;53413;49.878;8.142;2023-08-30T10:37:35;7.18;;;4.43;;
66559;SDS011;53413;49.878;8.142;2023-08-30T10:40:00;8.20;;;5.33;;
66559;SDS011;53413;49.878;8.142;2023-08-30T10:42:30;8.80;;;5.18;;
66559;SDS011;53413;49.878;8.142;2023-08-30T10:49:56;9.02;;;5.25;;
66559;SDS011;53413;49.878;8.142;2023-08-30T10:52:24;9.57;;;5.28;;
66559;SDS011;53413;49.878;8.142;2023-08-30T10:54:50;8.85;;;5.18;;
66559;SDS011;53413;49.878;8.142;2023-08-30T10:57:29;8.63;;;4.93;;
66559;SDS011;53413;49.878;8.142;2023-08-30T11:00:11;8.35;;;5.28;;
66559;SDS011;53413;49.878;8.142;2023-08-30T11:02:42;10.07;;;5.50;;
66559;SDS011;53413;49.878;8.142;2023-08-30T11:05:10;7.30;;;3.70;;
66559;SDS011;53413;49.878;8.142;2023-08-30T11:07:35;6.40;;;3.83;;
66559;SDS011;53413;49.878;8.142;2023-08-30T11:10:01;7.65;;;4.05;;
66559;SDS011;53413;49.878;8.142;2023-08-30T11:12:30;7.43;;;3.03;;
66559;SDS011;53413;49.878;8.142;2023-08-30T11:14:55;5.55;;;2.75;;
66559;SDS011;53413;49.878;8.142;2023-08-30T11:17:21;6.50;;;3.30;;
66559;SDS011;53413;49.878;8.142;2023-08-30T11:19:50;6.05;;;3.30;;
66559;SDS011;53413;49.878;8.142;2023-08-30T11:22:21;6.00;;;2.92;;
66559;SDS011;53413;49.878;8.142;2023-08-30T11:24:47;5.80;;;2.90;;
66559;SDS011;53413;49.878;8.142;2023-08-30T11:27:15;6.43;;;3.00;;
66559;SDS011;53413;49.878;8.142;2023-08-30T11:29:41;6.53;;;3.30;;
66559;SDS011;53413;49.878;8.142;2023-08-30T11:32:07;5.93;;;2.70;;
66559;SDS011;53413;49.878;8.142;2023-08-30T11:34:33;5.27;;;2.80;;
66559;SDS011;53413;49.878;8.142;2023-08-30T11:36:58;6.70;;;3.17;;
66559;SDS011;53413;49.878;8.142;2023-08-30T11:39:24;5.03;;;2.58;;
66559;SDS011;53413;49.878;8.142;2023-08-30T11:41:53;5.85;;;3.03;;
66559;SDS011;53413;49.878;8.142;2023-08-30T11:44:18;6.20;;;2.90;;
66559;SDS011;53413;49.878;8.142;2023-08-30T11:46:44;5.70;;;2.93;;
66559;SDS011;53413;49.878;8.142;2023-08-30T11:49:09;8.02;;;2.95;;
66559;SDS011;53413;49.878;8.142;2023-08-30T11:51:35;5.80;;;3.00;;
66559;SDS011;53413;49.878;8.142;2023-08-30T11:54:01;5.72;;;2.70;;
66559;SDS011;53413;49.878;8.142;2023-08-30T11:56:28;6.75;;;2.78;;
66559;SDS011;53413;49.878;8.142;2023-08-30T11:58:54;5.63;;;3.08;;
66559;SDS011;53413;49.878;8.142;2023-08-30T12:01:20;6.53;;;3.40;;
66559;SDS011;53413;49.878;8.142;2023-08-30T12:03:45;5.80;;;3.00;;
66559;SDS011;53413;49.878;8.142;2023-08-30T12:06:15;6.03;;;3.20;;
66559;SDS011;53413;49.878;8.142;2023-08-30T12:08:41;6.20;;;3.50;;
66559;SDS011;53413;49.878;8.142;2023-08-30T12:11:16;5.97;;;2.90;;
66559;SDS011;53413;49.878;8.142;2023-08-30T12:13:45;5.25;;;3.00;;
66559;SDS011;53413;49.878;8.142;2023-08-30T12:16:15;5.80;;;3.28;;
66559;SDS011;53413;49.878;8.142;2023-08-30T12:18:42;6.28;;;3.60;;
66559;SDS011;53413;49.878;8.142;2023-08-30T12:21:08;6.18;;;3.33;;
66559;SDS011;53413;49.878;8.142;2023-08-30T12:23:33;8.30;;;3.83;;
66559;SDS011;53413;49.878;8.142;2023-08-30T12:26:03;6.28;;;3.45;;
66559;SDS011;53413;49.878;8.142;2023-08-30T12:28:30;7.20;;;3.88;;
66559;SDS011;53413;49.878;8.142;2023-08-30T12:31:05;7.28;;;4.05;;
66559;SDS011;53413;49.878;8.142;2023-08-30T12:33:30;6.20;;;3.60;;
66559;SDS011;53413;49.878;8.142;2023-08-30T12:35:56;6.63;;;3.93;;
66559;SDS011;53413;49.878;8.142;2023-08-30T12:38:22;7.80;;;3.70;;
66559;SDS011;53413;49.878;8.142;2023-08-30T12:40:49;6.97;;;3.97;;
66559;SDS011;53413;49.878;8.142;2023-08-30T12:43:16;7.13;;;3.83;;
66559;SDS011;53413;49.878;8.142;2023-08-30T12:45:43;6.93;;;4.00;;
66559;SDS011;53413;49.878;8.142;2023-08-30T12:48:09;7.68;;;4.20;;
66559;SDS011;53413;49.878;8.142;2023-08-30T12:50:36;6.47;;;4.18;;
66559;SDS011;53413;49.878;8.142;2023-08-30T12:53:05;7.07;;;3.80;;
66559;SDS011;53413;49.878;8.142;2023-08-30T12:55:31;6.82;;;3.90;;
66559;SDS011;53413;49.878;8.142;2023-08-30T12:57:57;6.00;;;3.67;;
66559;SDS011;53413;49.878;8.142;2023-08-30T13:00:23;6.43;;;3.80;;
66559;SDS011;53413;49.878;8.142;2023-08-30T13:02:49;7.20;;;4.10;;
66559;SDS011;53413;49.878;8.142;2023-08-30T13:05:14;6.77;;;3.73;;
66559;SDS011;53413;49.878;8.142;2023-08-30T13:07:40;6.45;;;3.80;;
66559;SDS011;53413;49.878;8.142;2023-08-30T13:10:06;7.05;;;3.60;;
66559;SDS011;53413;49.878;8.142;2023-08-30T13:12:32;6.82;;;3.60;;
66559;SDS011;53413;49.878;8.142;2023-08-30T13:14:57;6.47;;;3.63;;
66559;SDS011;53413;49.878;8.142;2023-08-30T13:17:23;7.40;;;3.90;;
66559;SDS011;53413;49.878;8.142;2023-08-30T13:19:48;8.33;;;4.00;;
66559;SDS011;53413;49.878;8.142;2023-08-30T13:22:14;7.50;;;4.10;;
66559;SDS011;53413;49.878;8.142;2023-08-30T13:24:40;6.63;;;4.30;;
66559;SDS011;53413;49.878;8.142;2023-08-30T13:27:05;7.20;;;4.13;;
66559;SDS011;53413;49.878;8.142;2023-08-30T13:29:31;6.43;;;3.63;;
66559;SDS011;53413;49.878;8.142;2023-08-30T13:31:56;8.37;;;3.70;;
66559;SDS011;53413;49.878;8.142;2023-08-30T13:34:21;6.10;;;3.47;;
66559;SDS011;53413;49.878;8.142;2023-08-30T13:36:47;7.07;;;3.10;;
66559;SDS011;53413;49.878;8.142;2023-08-30T13:39:12;6.70;;;3.00;;
66559;SDS011;53413;49.878;8.142;2023-08-30T13:41:38;6.35;;;3.00;;
66559;SDS011;53413;49.878;8.142;2023-08-30T13:44:03;7.50;;;3.10;;
66559;SDS011;53413;49.878;8.142;2023-08-30T13:46:29;6.47;;;3.17;;
66559;SDS011;53413;49.878;8.142;2023-08-30T13:48:55;6.20;;;2.95;;
66559;SDS011;53413;49.878;8.142;2023-08-30T13:51:24;6.43;;;2.70;;
66559;SDS011;53413;49.878;8.142;2023-08-30T13:53:50;5.90;;;3.00;;
66559;SDS011;53413;49.878;8.142;2023-08-30T13:56:16;6.63;;;2.78;;
66559;SDS011;53413;49.878;8.142;2023-08-30T13:58:41;7.40;;;2.80;;
66559;SDS011;53413;49.878;8.142;2023-08-30T14:01:07;7.10;;;2.77;;
66559;SDS011;53413;49.878;8.142;2023-08-30T14:03:32;5.78;;;2.70;;
66559;SDS011;53413;49.878;8.142;2023-08-30T14:05:58;6.80;;;3.07;;
66559;SDS011;53413;49.878;8.142;2023-08-30T14:08:23;6.33;;;2.63;;
66559;SDS011;53413;49.878;8.142;2023-08-30T14:10:49;7.07;;;3.00;;
66559;SDS011;53413;49.878;8.142;2023-08-30T14:13:14;5.30;;;2.47;;
66559;SDS011;53413;49.878;8.142;2023-08-30T14:15:40;6.95;;;2.90;;
66559;SDS011;53413;49.878;8.142;2023-08-30T14:18:07;6.00;;;2.50;;
66559;SDS011;53413;49.878;8.142;2023-08-30T14:20:32;5.43;;;2.33;;
66559;SDS011;53413;49.878;8.142;2023-08-30T14:22:57;5.67;;;2.60;;
66559;SDS011;53413;49.878;8.142;2023-08-30T14:25:23;5.40;;;2.47;;
66559;SDS011;53413;49.878;8.142;2023-08-30T14:27:48;5.65;;;2.50;;
66559;SDS011;53413;49.878;8.142;2023-08-30T14:30:14;6.37;;;2.40;;
66559;SDS011;53413;49.878;8.142;2023-08-30T14:32:40;5.80;;;2.50;;
66559;SDS011;53413;49.878;8.142;2023-08-30T14:35:06;5.17;;;2.50;;
66559;SDS011;53413;49.878;8.142;2023-08-30T14:37:31;5.47;;;2.50;;
66559;SDS011;53413;49.878;8.142;2023-08-30T14:39:59;5.50;;;2.50;;
66559;SDS011;53413;49.878;8.142;2023-08-30T14:42:25;5.72;;;2.40;;
66559;SDS011;53413;49.878;8.142;2023-08-30T14:44:51;6.35;;;2.50;;
66559;SDS011;53413;49.878;8.142;2023-08-30T14:47:17;5.75;;;2.35;;
66559;SDS011;53413;49.878;8.142;2023-08-30T14:49:43;6.20;;;2.47;;